createdAt,value
2023-02-19T00:01:12.338Z,99.02
2023-02-19T00:03:39.653Z,99.40
2023-02-19T00:06:09.854Z,100.00
2023-02-19T00:08:38.379Z,100.00
2023-02-19T00:11:08.709Z,100.00
2023-02-19T00:13:39.174Z,100.00
2023-02-19T00:16:07.477Z,100.00
2023-02-19T00:18:35.985Z,100.00
2023-02-19T00:21:03.766Z,100.00
2023-02-19T00:23:30.894Z,100.00
2023-02-19T00:26:03.184Z,100.00
2023-02-19T00:28:36.315Z,100.00
2023-02-19T00:31:06.910Z,100.00
2023-02-19T00:33:34.453Z,100.00
2023-02-19T00:36:02.898Z,100.00
2023-02-19T00:38:29.686Z,100.00
2023-02-19T00:40:56.371Z,100.00
2023-02-19T00:43:23.020Z,100.00
2023-02-19T00:45:49.672Z,100.00
2023-02-19T00:51:57.053Z,100.00
2023-02-19T00:54:23.808Z,100.00
2023-02-19T00:56:50.757Z,100.00
2023-02-19T00:59:17.541Z,100.00
2023-02-19T01:01:44.903Z,100.00
2023-02-19T01:04:11.701Z,100.00
2023-02-19T01:06:38.319Z,100.00
2023-02-19T01:09:06.124Z,100.00
2023-02-19T01:11:32.813Z,100.00
2023-02-19T01:14:00.975Z,100.00
2023-02-19T01:16:28.279Z,100.00
2023-02-19T01:18:56.564Z,100.00
2023-02-19T01:21:25.713Z,100.00
2023-02-19T01:23:52.825Z,100.00
2023-02-19T01:26:22.440Z,100.00
2023-02-19T01:28:49.704Z,100.00
2023-02-19T01:31:19.536Z,100.00
2023-02-19T01:33:47.648Z,100.00
2023-02-19T01:36:14.922Z,100.00
2023-02-19T01:38:42.399Z,100.00
2023-02-19T01:41:12.476Z,100.00
2023-02-19T01:44:17.231Z,100.00
2023-02-19T01:46:48.815Z,100.00
2023-02-19T01:49:23.950Z,100.00
2023-02-19T01:51:59.168Z,100.00
2023-02-19T01:54:31.098Z,100.00
2023-02-19T01:56:59.957Z,100.00
2023-02-19T01:59:26.630Z,100.00
2023-02-19T02:01:53.499Z,100.00
2023-02-19T02:04:20.339Z,100.00
2023-02-19T02:06:53.689Z,100.00
2023-02-19T02:09:41.015Z,100.00
2023-02-19T02:12:07.908Z,100.00
2023-02-19T02:14:38.179Z,100.00
2023-02-19T02:17:31.473Z,100.00
2023-02-19T02:20:16.079Z,100.00
2023-02-19T02:22:51.487Z,100.00
2023-02-19T02:25:55.330Z,100.00
2023-02-19T02:28:40.623Z,100.00
2023-02-19T02:31:23.179Z,100.00
2023-02-19T02:33:49.834Z,100.00
2023-02-19T02:36:22.131Z,100.00
2023-02-19T02:38:50.153Z,100.00
2023-02-19T02:41:16.962Z,100.00
2023-02-19T02:43:43.645Z,100.00
2023-02-19T02:46:16.681Z,100.00
2023-02-19T02:48:54.088Z,100.00
2023-02-19T02:51:44.015Z,100.00
2023-02-19T02:54:31.142Z,100.00
2023-02-19T02:56:59.364Z,100.00
2023-02-19T02:59:28.856Z,100.00
2023-02-19T03:02:14.745Z,100.00
2023-02-19T03:05:39.841Z,100.00
2023-02-19T03:08:15.365Z,100.00
2023-02-19T03:10:52.599Z,100.00
2023-02-19T03:13:43.941Z,100.00
2023-02-19T03:16:34.592Z,100.00
2023-02-19T03:19:20.075Z,100.00
2023-02-19T03:21:59.883Z,100.00
2023-02-19T03:24:52.079Z,100.00
2023-02-19T03:27:21.096Z,100.00
2023-02-19T03:29:50.293Z,100.00
2023-02-19T03:32:33.154Z,100.00
2023-02-19T03:35:06.400Z,100.00
2023-02-19T03:37:39.916Z,100.00
2023-02-19T03:40:07.334Z,100.00
2023-02-19T03:43:08.964Z,100.00
2023-02-19T03:45:55.837Z,100.00
2023-02-19T03:48:33.860Z,100.00
2023-02-19T03:51:08.371Z,100.00
2023-02-19T03:55:01.869Z,100.00
2023-02-19T03:57:39.499Z,100.00
2023-02-19T04:00:14.517Z,100.00
2023-02-19T04:02:58.772Z,100.00
2023-02-19T04:05:32.221Z,100.00
2023-02-19T04:08:04.166Z,100.00
2023-02-19T04:10:32.178Z,100.00
2023-02-19T04:13:10.648Z,100.00
2023-02-19T04:15:41.862Z,100.00
2023-02-19T04:18:14.509Z,100.00
2023-02-19T04:20:44.630Z,100.00
2023-02-19T04:23:12.706Z,100.00
2023-02-19T04:25:43.410Z,100.00
2023-02-19T04:28:10.459Z,100.00
2023-02-19T04:30:37.179Z,100.00
2023-02-19T04:33:03.905Z,100.00
2023-02-19T04:35:30.665Z,100.00
2023-02-19T04:37:57.300Z,100.00
2023-02-19T04:40:23.888Z,100.00
2023-02-19T04:42:50.549Z,100.00
2023-02-19T04:45:17.164Z,100.00
2023-02-19T04:47:43.898Z,100.00
2023-02-19T04:50:10.638Z,100.00
2023-02-19T04:52:37.389Z,100.00
2023-02-19T04:55:04.423Z,100.00
2023-02-19T04:57:31.453Z,100.00
2023-02-19T04:59:58.078Z,100.00
2023-02-19T05:02:24.780Z,100.00
2023-02-19T05:04:51.382Z,100.00
2023-02-19T05:07:18.732Z,100.00
2023-02-19T05:09:45.301Z,100.00
2023-02-19T05:12:11.909Z,100.00
2023-02-19T05:14:38.751Z,100.00
2023-02-19T05:17:05.367Z,100.00
2023-02-19T05:19:32.127Z,100.00
2023-02-19T05:21:58.796Z,100.00
2023-02-19T05:24:26.879Z,100.00
2023-02-19T05:26:53.517Z,100.00
2023-02-19T05:30:32.987Z,100.00
2023-02-19T05:32:59.613Z,100.00
2023-02-19T05:35:26.286Z,100.00
2023-02-19T05:37:52.912Z,100.00
2023-02-19T05:40:19.523Z,100.00
2023-02-19T05:42:46.224Z,100.00
2023-02-19T05:45:12.874Z,100.00
2023-02-19T05:47:39.487Z,100.00
2023-02-19T05:50:06.620Z,100.00
2023-02-19T05:52:33.253Z,100.00
2023-02-19T05:54:59.859Z,100.00
2023-02-19T05:57:26.581Z,100.00
2023-02-19T05:59:53.194Z,100.00
2023-02-19T06:02:19.839Z,100.00
2023-02-19T06:04:46.437Z,100.00
2023-02-19T06:07:13.056Z,100.00
2023-02-19T06:09:39.692Z,100.00
2023-02-19T06:12:08.148Z,100.00
2023-02-19T06:14:34.791Z,100.00
2023-02-19T06:17:01.440Z,100.00
2023-02-19T06:19:28.091Z,100.00
2023-02-19T06:21:54.710Z,100.00
2023-02-19T06:24:21.370Z,100.00
2023-02-19T06:26:47.999Z,100.00
2023-02-19T06:29:14.660Z,100.00
2023-02-19T06:31:41.340Z,100.00
2023-02-19T06:34:08.025Z,100.00
2023-02-19T06:36:34.694Z,100.00
2023-02-19T06:39:02.221Z,100.00
2023-02-19T06:41:28.946Z,100.00
2023-02-19T06:43:57.476Z,100.00
2023-02-19T06:46:24.191Z,100.00
2023-02-19T06:48:50.900Z,100.00
2023-02-19T06:51:23.813Z,100.00
2023-02-19T06:53:50.727Z,100.00
2023-02-19T06:56:26.809Z,100.00
2023-02-19T06:58:56.144Z,100.00
2023-02-19T07:01:23.787Z,100.00
2023-02-19T07:03:51.042Z,100.00
2023-02-19T07:06:17.857Z,100.00
2023-02-19T07:08:44.789Z,100.00
2023-02-19T07:11:11.829Z,100.00
2023-02-19T07:13:38.626Z,100.00
2023-02-19T07:16:08.055Z,100.00
2023-02-19T07:18:35.380Z,100.00
2023-02-19T07:21:07.609Z,100.00
2023-02-19T07:23:34.703Z,100.00
2023-02-19T07:26:01.573Z,100.00
2023-02-19T07:28:28.386Z,100.00
2023-02-19T07:31:01.369Z,100.00
2023-02-19T07:33:28.161Z,100.00
2023-02-19T07:35:54.776Z,100.00
2023-02-19T07:38:23.548Z,100.00
2023-02-19T07:40:55.235Z,100.00
2023-02-19T07:43:22.684Z,100.00
2023-02-19T07:45:49.478Z,100.00
2023-02-19T07:48:16.830Z,100.00
2023-02-19T07:50:51.702Z,100.00
2023-02-19T07:53:18.280Z,100.00
2023-02-19T07:55:44.891Z,100.00
2023-02-19T07:58:12.004Z,100.00
2023-02-19T08:00:38.814Z,100.00
2023-02-19T08:03:05.780Z,100.00
2023-02-19T08:05:36.668Z,100.00
2023-02-19T08:08:06.653Z,100.00
2023-02-19T08:10:51.961Z,100.00
2023-02-19T08:13:25.688Z,100.00
2023-02-19T08:15:55.128Z,100.00
2023-02-19T08:18:27.814Z,100.00
2023-02-19T08:20:56.091Z,100.00
2023-02-19T08:23:23.730Z,100.00
2023-02-19T08:25:51.672Z,100.00
2023-02-19T08:28:19.516Z,100.00
2023-02-19T08:30:47.738Z,100.00
2023-02-19T08:33:18.301Z,100.00
2023-02-19T08:35:46.553Z,100.00
2023-02-19T08:38:16.361Z,100.00
2023-02-19T08:40:43.986Z,100.00
2023-02-19T08:43:13.949Z,100.00
2023-02-19T08:45:42.438Z,100.00
2023-02-19T08:48:09.412Z,100.00
2023-02-19T08:50:36.561Z,100.00
2023-02-19T08:53:05.009Z,100.00
2023-02-19T08:55:31.852Z,100.00
2023-02-19T08:57:58.945Z,100.00
2023-02-19T09:00:25.739Z,97.00
2023-02-19T09:02:52.588Z,93.09
2023-02-19T09:05:19.266Z,90.05
2023-02-19T09:07:45.944Z,90.38
2023-02-19T09:10:13.928Z,87.45
2023-02-19T09:12:40.998Z,87.63
2023-02-19T09:15:08.275Z,87.36
2023-02-19T09:17:34.972Z,87.20
2023-02-19T09:20:01.684Z,88.77
2023-02-19T09:22:28.360Z,86.57
2023-02-19T09:24:55.324Z,86.92
2023-02-19T09:27:22.032Z,89.71
2023-02-19T09:29:48.687Z,88.27
2023-02-19T09:32:16.664Z,88.10
2023-02-19T09:34:44.720Z,90.83
2023-02-19T09:37:11.489Z,89.80
2023-02-19T09:39:38.292Z,86.04
2023-02-19T09:42:15.404Z,85.62
2023-02-19T09:44:45.550Z,84.96
2023-02-19T09:47:21.840Z,79.54
2023-02-19T09:49:52.249Z,78.68
2023-02-19T09:52:37.731Z,77.04
2023-02-19T09:55:26.177Z,81.01
2023-02-19T09:57:53.440Z,79.11
2023-02-19T10:00:26.767Z,77.70
2023-02-19T10:03:30.936Z,77.93
2023-02-19T10:06:23.754Z,75.79
2023-02-19T10:08:53.273Z,72.93
2023-02-19T10:11:20.197Z,74.49
2023-02-19T10:14:02.366Z,76.05
2023-02-19T10:16:29.701Z,76.32
2023-02-19T10:18:56.722Z,68.33
2023-02-19T10:21:28.163Z,67.69
2023-02-19T10:24:03.103Z,68.56
2023-02-19T10:26:34.817Z,70.71
2023-02-19T10:29:03.519Z,67.65
2023-02-19T10:31:32.962Z,65.19
2023-02-19T10:34:02.181Z,62.20
2023-02-19T10:36:33.042Z,54.06
2023-02-19T10:39:01.973Z,51.10
2023-02-19T10:41:29.253Z,50.86
2023-02-19T10:44:10.947Z,49.76
2023-02-19T10:46:43.355Z,46.85
2023-02-19T10:49:22.627Z,46.24
2023-02-19T10:51:49.633Z,47.37
2023-02-19T10:54:25.249Z,45.04
2023-02-19T10:56:52.011Z,46.37
2023-02-19T10:59:18.636Z,46.56
2023-02-19T11:02:02.579Z,46.40
2023-02-19T11:04:35.595Z,46.15
2023-02-19T11:07:17.111Z,45.88
2023-02-19T11:09:52.886Z,47.92
2023-02-19T11:12:34.938Z,44.09
2023-02-19T11:15:20.326Z,44.96
2023-02-19T11:17:55.605Z,44.75
2023-02-19T11:20:22.646Z,43.75
2023-02-19T11:22:49.911Z,45.00
2023-02-19T11:25:17.214Z,44.56
2023-02-19T11:27:59.137Z,45.26
2023-02-19T11:30:36.130Z,45.12
2023-02-19T11:33:27.729Z,42.98
2023-02-19T11:36:24.565Z,42.28
2023-02-19T11:38:51.275Z,42.88
2023-02-19T11:41:34.157Z,41.32
2023-02-19T11:44:30.438Z,41.36
2023-02-19T11:47:06.141Z,43.19
2023-02-19T11:49:49.296Z,42.47
2023-02-19T11:52:34.217Z,44.78
2023-02-19T11:55:18.545Z,42.18
2023-02-19T11:58:11.233Z,41.93
2023-02-19T12:00:53.874Z,41.59
2023-02-19T12:03:45.588Z,41.21
2023-02-19T12:06:36.919Z,39.26
2023-02-19T12:09:15.683Z,41.35
2023-02-19T12:11:42.268Z,40.85
2023-02-19T12:14:28.133Z,39.88
2023-02-19T12:17:27.069Z,38.62
2023-02-19T12:20:10.679Z,39.40
2023-02-19T12:23:03.124Z,39.68
2023-02-19T12:25:51.364Z,41.61
2023-02-19T12:28:53.429Z,42.84
2023-02-19T12:31:33.071Z,43.19
2023-02-19T12:34:18.086Z,43.07
2023-02-19T12:36:56.575Z,43.76
2023-02-19T12:39:33.339Z,44.72
2023-02-19T12:42:21.698Z,45.81
2023-02-19T12:44:56.187Z,46.83
2023-02-19T12:47:28.599Z,47.33
2023-02-19T12:50:16.835Z,47.70
2023-02-19T12:52:49.916Z,49.10
2023-02-19T12:55:24.871Z,48.24
2023-02-19T12:57:53.166Z,50.12
2023-02-19T13:00:29.010Z,49.97
2023-02-19T13:02:58.644Z,50.06
2023-02-19T13:05:50.088Z,49.99
2023-02-19T13:08:25.718Z,50.03
2023-02-19T13:10:57.995Z,51.21
2023-02-19T13:13:34.700Z,50.20
2023-02-19T13:16:09.941Z,51.22
2023-02-19T13:18:44.386Z,52.45
2023-02-19T13:21:35.325Z,53.40
2023-02-19T13:24:09.534Z,52.75
2023-02-19T13:27:05.250Z,53.96
2023-02-19T13:29:47.220Z,54.16
2023-02-19T13:32:25.671Z,53.93
2023-02-19T13:35:22.659Z,55.11
2023-02-19T13:37:50.375Z,56.72
2023-02-19T13:40:39.498Z,56.67
2023-02-19T13:43:28.349Z,57.09
2023-02-19T13:46:00.832Z,57.28
2023-02-19T13:48:40.165Z,57.90
2023-02-19T13:51:13.081Z,58.34
2023-02-19T13:53:46.056Z,59.48
2023-02-19T13:56:34.340Z,60.04
2023-02-19T13:59:24.771Z,58.68
2023-02-19T14:01:54.064Z,59.19
2023-02-19T14:04:44.852Z,59.63
2023-02-19T14:07:11.500Z,60.21
2023-02-19T14:09:39.973Z,60.26
2023-02-19T14:12:15.071Z,60.02
2023-02-19T14:14:46.818Z,59.51
2023-02-19T14:17:33.283Z,60.56
2023-02-19T14:20:01.138Z,60.00
2023-02-19T14:22:45.838Z,61.55
2023-02-19T14:25:28.413Z,61.14
2023-02-19T14:28:06.644Z,61.29
2023-02-19T14:30:35.569Z,62.08
2023-02-19T14:33:10.569Z,62.08
2023-02-19T14:35:41.451Z,63.73
2023-02-19T14:38:36.126Z,62.99
2023-02-19T14:41:03.868Z,62.74
2023-02-19T14:43:31.992Z,62.14
2023-02-19T14:48:46.494Z,62.96
2023-02-19T14:51:23.320Z,62.19
2023-02-19T14:53:51.914Z,61.57
2023-02-19T14:56:26.189Z,62.06
2023-02-19T14:59:09.085Z,61.47
2023-02-19T15:01:35.939Z,61.96
2023-02-19T15:04:02.952Z,60.28
2023-02-19T15:06:31.722Z,61.30
2023-02-19T15:09:02.712Z,61.10
2023-02-19T15:11:32.675Z,61.60
2023-02-19T15:14:02.766Z,60.11
2023-02-19T15:16:31.396Z,59.75
2023-02-19T15:18:59.889Z,59.74
2023-02-19T15:21:29.724Z,63.32
2023-02-19T15:23:59.734Z,61.57
2023-02-19T15:26:35.993Z,63.05
2023-02-19T15:29:09.758Z,61.96
2023-02-19T15:31:37.031Z,61.65
2023-02-19T15:34:03.981Z,62.08
2023-02-19T15:36:34.078Z,62.13
2023-02-19T15:39:04.041Z,63.93
2023-02-19T15:41:34.681Z,63.03
2023-02-19T15:44:28.926Z,63.11
2023-02-19T15:46:57.119Z,64.40
2023-02-19T15:49:41.559Z,63.38
2023-02-19T15:52:12.178Z,64.21
2023-02-19T15:54:49.386Z,64.11
2023-02-19T15:57:23.000Z,65.59
2023-02-19T16:00:12.727Z,64.28
2023-02-19T16:02:40.659Z,66.19
2023-02-19T16:05:23.135Z,67.01
2023-02-19T16:08:06.726Z,67.19
2023-02-19T16:10:33.548Z,68.10
2023-02-19T16:13:02.642Z,67.93
2023-02-19T16:15:31.293Z,69.29
2023-02-19T16:17:59.085Z,69.11
2023-02-19T16:20:29.872Z,69.69
2023-02-19T16:23:03.091Z,70.46
2023-02-19T16:25:41.875Z,69.12
2023-02-19T16:28:22.991Z,68.78
2023-02-19T16:30:58.330Z,68.83
2023-02-19T16:33:28.047Z,68.34
2023-02-19T16:35:54.695Z,68.54
2023-02-19T16:38:21.582Z,67.32
2023-02-19T16:40:48.145Z,66.45
2023-02-19T16:43:14.794Z,66.74
2023-02-19T16:45:42.469Z,67.09
2023-02-19T16:48:10.246Z,67.23
2023-02-19T16:50:39.696Z,67.67
2023-02-19T16:53:06.245Z,67.55
2023-02-19T16:55:34.684Z,67.66
2023-02-19T16:58:01.513Z,67.47
2023-02-19T17:00:30.546Z,67.27
2023-02-19T17:03:00.940Z,66.36
2023-02-19T17:05:30.379Z,66.99
2023-02-19T17:07:57.063Z,65.95
2023-02-19T17:10:26.245Z,66.09
2023-02-19T17:12:54.110Z,65.61
2023-02-19T17:15:21.510Z,65.81
2023-02-19T17:17:48.714Z,64.75
2023-02-19T17:20:27.764Z,64.91
2023-02-19T17:22:55.429Z,64.56
2023-02-19T17:25:22.680Z,64.52
2023-02-19T17:27:49.752Z,64.23
2023-02-19T17:30:29.196Z,63.01
2023-02-19T17:32:55.990Z,64.05
2023-02-19T17:36:59.746Z,63.77
2023-02-19T17:39:26.590Z,63.39
2023-02-19T17:41:53.197Z,63.21
2023-02-19T17:44:19.807Z,62.75
2023-02-19T17:46:48.038Z,62.47
2023-02-19T17:49:14.757Z,64.63
2023-02-19T17:51:41.435Z,62.98
2023-02-19T17:54:08.503Z,61.75
2023-02-19T17:56:35.181Z,63.04
2023-02-19T17:59:01.907Z,63.76
2023-02-19T18:01:28.705Z,60.42
2023-02-19T18:03:55.395Z,58.90
2023-02-19T18:06:22.042Z,59.79
2023-02-19T18:08:51.012Z,60.57
2023-02-19T18:11:19.134Z,60.93
2023-02-19T18:13:46.208Z,60.13
2023-02-19T18:16:15.640Z,59.18
2023-02-19T18:18:42.940Z,58.24
2023-02-19T18:21:11.199Z,56.58
2023-02-19T18:23:38.596Z,57.66
2023-02-19T18:26:11.121Z,57.76
2023-02-19T18:28:38.282Z,56.81
2023-02-19T18:31:05.965Z,56.85
2023-02-19T18:33:34.676Z,56.81
2023-02-19T18:36:01.326Z,57.37
2023-02-19T18:38:27.989Z,58.40
2023-02-19T18:40:54.676Z,57.77
2023-02-19T18:43:21.361Z,57.87
2023-02-19T18:45:48.012Z,57.52
2023-02-19T18:48:14.643Z,58.08
2023-02-19T18:50:41.354Z,58.39
2023-02-19T18:53:08.011Z,57.96
2023-02-19T18:55:34.637Z,58.74
2023-02-19T19:00:27.902Z,59.45
2023-02-19T19:02:56.904Z,59.10
2023-02-19T19:05:24.869Z,58.82
2023-02-19T19:07:56.579Z,58.44
2023-02-19T19:10:23.844Z,57.74
2023-02-19T19:12:51.278Z,58.42
2023-02-19T19:15:18.921Z,57.41
2023-02-19T19:17:46.367Z,56.37
2023-02-19T19:20:14.657Z,56.40
2023-02-19T19:22:41.321Z,57.02
2023-02-19T19:25:09.055Z,55.37
2023-02-19T19:27:36.044Z,56.63
2023-02-19T19:30:04.845Z,55.93
2023-02-19T19:32:31.484Z,55.74
2023-02-19T19:34:58.273Z,55.90
2023-02-19T19:37:26.849Z,53.06
2023-02-19T19:39:56.128Z,53.79
2023-02-19T19:42:22.991Z,53.77
2023-02-19T19:44:49.688Z,53.53
2023-02-19T19:47:16.491Z,56.25
2023-02-19T19:52:21.345Z,53.74
2023-02-19T19:54:48.092Z,52.79
2023-02-19T19:57:15.996Z,51.82
2023-02-19T19:59:42.638Z,51.67
2023-02-19T20:04:23.458Z,52.38
2023-02-19T20:06:50.604Z,52.87
2023-02-19T20:09:18.011Z,52.39
2023-02-19T20:11:50.786Z,52.67
2023-02-19T20:14:19.476Z,53.54
2023-02-19T20:16:47.631Z,53.31
2023-02-19T20:19:15.642Z,54.63
2023-02-19T20:21:46.349Z,55.18
2023-02-19T20:24:28.680Z,55.46
2023-02-19T20:27:01.958Z,55.25
2023-02-19T20:29:31.311Z,55.92
2023-02-19T20:32:00.121Z,56.81
2023-02-19T20:34:27.462Z,56.09
2023-02-19T20:36:54.322Z,56.43
2023-02-19T20:39:21.896Z,56.66
2023-02-19T20:41:51.676Z,58.07
2023-02-19T20:44:18.909Z,58.60
2023-02-19T20:46:48.020Z,57.87
2023-02-19T20:49:17.158Z,59.14
2023-02-19T20:51:48.829Z,59.27
2023-02-19T20:54:20.236Z,58.92
2023-02-19T20:56:48.626Z,61.83
2023-02-19T20:59:17.304Z,62.61
2023-02-19T21:01:44.655Z,64.77
2023-02-19T21:04:11.848Z,65.06
2023-02-19T21:06:39.770Z,65.11
2023-02-19T21:09:07.264Z,66.74
2023-02-19T21:11:34.072Z,67.33
2023-02-19T21:14:00.948Z,69.66
2023-02-19T21:16:29.422Z,69.96
2023-02-19T21:18:56.488Z,68.76
2023-02-19T21:21:26.198Z,70.01
2023-02-19T21:23:57.151Z,71.30
2023-02-19T21:26:25.625Z,71.01
2023-02-19T21:28:52.480Z,71.91
2023-02-19T21:31:20.220Z,71.96
2023-02-19T21:33:47.038Z,73.35
2023-02-19T21:36:13.911Z,72.42
2023-02-19T21:38:40.723Z,72.96
2023-02-19T21:41:07.426Z,72.38
2023-02-19T21:43:34.044Z,71.94
2023-02-19T21:46:00.740Z,73.38
2023-02-19T21:48:27.382Z,73.19
2023-02-19T21:50:53.976Z,72.70
2023-02-19T21:53:20.596Z,74.09
2023-02-19T21:56:43.580Z,74.03
2023-02-19T21:59:10.487Z,74.85
2023-02-19T22:04:19.480Z,75.18
2023-02-19T22:06:46.379Z,75.95
2023-02-19T22:11:51.349Z,76.24
2023-02-19T22:14:18.095Z,76.76
2023-02-19T22:16:44.850Z,74.89
2023-02-19T22:19:12.908Z,75.04
2023-02-19T22:21:43.681Z,76.75
2023-02-19T22:24:18.919Z,76.91
2023-02-19T22:26:46.333Z,77.45
2023-02-19T22:29:15.345Z,75.24
2023-02-19T22:31:42.317Z,76.00
2023-02-19T22:34:09.749Z,77.56
2023-02-19T22:36:40.517Z,79.83
2023-02-19T22:39:15.598Z,79.88
2023-02-19T22:41:43.437Z,80.45
2023-02-19T22:44:11.204Z,80.24
2023-02-19T22:46:37.897Z,80.48
2023-02-19T22:49:06.374Z,82.55
2023-02-19T22:51:35.648Z,80.76
2023-02-19T22:55:17.328Z,82.08
2023-02-19T22:57:43.971Z,81.53
2023-02-19T23:00:18.286Z,81.32
2023-02-19T23:02:46.883Z,83.25
2023-02-19T23:05:13.582Z,83.95
2023-02-19T23:07:44.862Z,83.92
2023-02-19T23:10:14.730Z,82.88
2023-02-19T23:14:01.099Z,83.20
2023-02-19T23:16:28.428Z,84.91
2023-02-19T23:18:55.493Z,85.64
2023-02-19T23:21:22.970Z,84.46
2023-02-19T23:27:30.283Z,85.60
2023-02-19T23:29:56.917Z,86.04
2023-02-19T23:32:23.895Z,85.95
2023-02-19T23:34:51.221Z,85.94
2023-02-19T23:37:18.034Z,85.85
2023-02-19T23:39:44.794Z,87.02
2023-02-19T23:42:15.710Z,88.14
2023-02-19T23:44:42.969Z,87.98
2023-02-19T23:47:09.586Z,88.22
2023-02-19T23:49:36.260Z,88.11
2023-02-19T23:52:03.261Z,87.22
2023-02-19T23:54:30.006Z,87.60
2023-02-19T23:56:56.690Z,87.80
2023-02-19T23:59:23.857Z,88.38
